Benton, KY

1:42 PM CDT on September 22, 2014 (GMT -0500)
Briensburg---KY | Change Station
CLOSE
Current Station
Personal Weather Station
Location: Benton, KY
Elevation: 505 ft
Nearby Weather Stations

Elev 505 ft 36.89 °N, 88.30 °W | Updated 8 minutes ago

Clear
Clear
73.8 °F
Feels Like 77 °F
N
-
Wind Variable Wind from North

Today
High -- | Low -- °F
--% Chance of Precip.
Yesterday
High -- | Low -- °F
Precip. -- in
6:41 AM 6:50 PM
Waning Crescent, 2% visible
Pressure 30.23 in
Visibility 10.0 miles
Clouds Clear
Heat Index 77 °F
Dew Point 49 °F
Humidity 41%
Rainfall -999.00 in
Snow Depth Not available.
UV 8 out of 12
Pollen 6.70 out of 12
Air Quality Not available.
Flu Activity Not available.
METAR KCEY 221815Z AUTO 05013G16KT 020V080 10SM CLR 20/09 A3023 RMK AO1

More Conditions Fewer Conditions

Pressure 30.23 in
Visibility 10.0 miles
Clouds Clear
Heat Index 77 °F
Dew Point 49 °F
Humidity 41%
Rainfall -999.00 in
Snow Depth Not available.
UV 8 out of 12
Pollen 6.70 out of 12
Air Quality Not available.
Flu Activity Not available.
METAR KCEY 221815Z AUTO 05013G16KT 020V080 10SM CLR 20/09 A3023 RMK AO1

More Conditions Fewer Conditions

10-Day Weather Forecast

Almanac

Astronomy

Sep. 22, 2014 Rise Set
Actual Time 6:41 AM CDT 6:50 PM CDT
Civil Twilight 6:15 AM CDT 7:16 PM CDT
Nautical Twilight 5:45 AM CDT 7:46 PM CDT
Astronomical Twilight 5:14 AM CDT 8:16 PM CDT
Moon 5:11 AM CDT 5:56 PM CDT
Length of Visible Light 13h 00m
Length of Day
12h 09m
Tomorrow will be 2m 20s shorter.
Waning Crescent, 2% of the Moon is Illuminated
Today
Waning Crescent
Sep 24
New
Oct 1
First Quarter
Oct 8
Full
Oct 15
Last Quarter

Today's Extremes

State Highs State Lows

Community

WunderPhotos

Upload Photos

1,755,512 photos uploaded!

WunderBlogs® & News

Nearby

Snow Depth

Station Depth Elevation
No new snow has been reported.

Earthquake Activity

City Distance Mag. Time & Date
No recent earthquake activity has been reported nearby.
Minimum magnitude displayed is 2.5.

Coastal Water Temperatures

Place Temperature
No Stations Reporting

Nearby Weather Stations